sensor_id;sensor_type;location;lat;lon;timestamp;temperature;humidity
7530;DHT22;3806;52.270;10.544;2022-08-01T00:00:41;20.70;99.90
7530;DHT22;3806;52.270;10.544;2022-08-01T00:03:07;20.70;99.90
7530;DHT22;3806;52.270;10.544;2022-08-01T00:05:32;20.80;99.90
7530;DHT22;3806;52.270;10.544;2022-08-01T00:07:58;20.80;99.90
7530;DHT22;3806;52.270;10.544;2022-08-01T00:10:24;20.80;99.90
7530;DHT22;3806;52.270;10.544;2022-08-01T00:12:50;20.80;99.90
7530;DHT22;3806;52.270;10.544;2022-08-01T00:15:16;20.80;99.90
7530;DHT22;3806;52.270;10.544;2022-08-01T00:17:43;20.80;99.90
7530;DHT22;3806;52.270;10.544;2022-08-01T00:20:11;20.80;99.90
7530;DHT22;3806;52.270;10.544;2022-08-01T00:22:37;20.80;99.90
7530;DHT22;3806;52.270;10.544;2022-08-01T00:25:04;20.80;99.90
7530;DHT22;3806;52.270;10.544;2022-08-01T00:27:30;20.80;99.90
7530;DHT22;3806;52.270;10.544;2022-08-01T00:29:56;20.80;99.90
7530;DHT22;3806;52.270;10.544;2022-08-01T00:32:22;20.80;99.90
7530;DHT22;3806;52.270;10.544;2022-08-01T00:34:48;20.80;99.90
7530;DHT22;3806;52.270;10.544;2022-08-01T00:37:13;20.80;99.90
7530;DHT22;3806;52.270;10.544;2022-08-01T00:39:39;20.90;99.90
7530;DHT22;3806;52.270;10.544;2022-08-01T00:42:10;20.80;99.90
7530;DHT22;3806;52.270;10.544;2022-08-01T00:44:36;20.90;99.90
7530;DHT22;3806;52.270;10.544;2022-08-01T00:47:03;20.90;99.90
7530;DHT22;3806;52.270;10.544;2022-08-01T00:49:29;20.90;99.90
7530;DHT22;3806;52.270;10.544;2022-08-01T00:51:55;20.90;99.90
7530;DHT22;3806;52.270;10.544;2022-08-01T00:54:23;20.90;99.90
7530;DHT22;3806;52.270;10.544;2022-08-01T00:56:49;20.90;99.90
7530;DHT22;3806;52.270;10.544;2022-08-01T00:59:17;20.80;99.90
7530;DHT22;3806;52.270;10.544;2022-08-01T01:01:43;20.90;99.90
7530;DHT22;3806;52.270;10.544;2022-08-01T01:04:09;20.90;99.90
7530;DHT22;3806;52.270;10.544;2022-08-01T01:09:56;20.90;99.90
7530;DHT22;3806;52.270;10.544;2022-08-01T01:15:43;20.80;99.90
7530;DHT22;3806;52.270;10.544;2022-08-01T01:18:22;20.80;99.90
7530;DHT22;3806;52.270;10.544;2022-08-01T01:21:02;20.80;99.90
7530;DHT22;3806;52.270;10.544;2022-08-01T01:26:41;20.80;99.90
7530;DHT22;3806;52.270;10.544;2022-08-01T01:31:50;20.80;99.90
7530;DHT22;3806;52.270;10.544;2022-08-01T01:34:20;20.80;99.90
7530;DHT22;3806;52.270;10.544;2022-08-01T01:36:48;20.80;99.90
7530;DHT22;3806;52.270;10.544;2022-08-01T01:39:14;20.80;99.90
7530;DHT22;3806;52.270;10.544;2022-08-01T01:41:42;20.80;99.90
7530;DHT22;3806;52.270;10.544;2022-08-01T01:44:10;20.80;99.90
7530;DHT22;3806;52.270;10.544;2022-08-01T01:46:36;20.80;99.90
7530;DHT22;3806;52.270;10.544;2022-08-01T01:49:03;20.80;99.90
7530;DHT22;3806;52.270;10.544;2022-08-01T01:51:30;20.80;99.90
7530;DHT22;3806;52.270;10.544;2022-08-01T01:53:57;20.80;99.90
7530;DHT22;3806;52.270;10.544;2022-08-01T01:56:24;20.80;99.90
7530;DHT22;3806;52.270;10.544;2022-08-01T01:58:56;20.80;99.90
7530;DHT22;3806;52.270;10.544;2022-08-01T02:01:26;20.80;99.90
7530;DHT22;3806;52.270;10.544;2022-08-01T02:03:55;20.80;99.90
7530;DHT22;3806;52.270;10.544;2022-08-01T02:06:23;20.80;99.90
7530;DHT22;3806;52.270;10.544;2022-08-01T02:08:52;20.80;99.90
7530;DHT22;3806;52.270;10.544;2022-08-01T02:11:20;20.80;99.90
7530;DHT22;3806;52.270;10.544;2022-08-01T02:14:01;20.80;99.90
7530;DHT22;3806;52.270;10.544;2022-08-01T02:16:29;20.70;99.90
7530;DHT22;3806;52.270;10.544;2022-08-01T02:18:57;20.70;99.90
7530;DHT22;3806;52.270;10.544;2022-08-01T02:21:44;20.70;99.90
7530;DHT22;3806;52.270;10.544;2022-08-01T02:24:19;20.70;99.90
7530;DHT22;3806;52.270;10.544;2022-08-01T02:26:50;20.70;99.90
7530;DHT22;3806;52.270;10.544;2022-08-01T02:29:45;20.70;99.90
7530;DHT22;3806;52.270;10.544;2022-08-01T02:32:26;20.70;99.90
7530;DHT22;3806;52.270;10.544;2022-08-01T02:34:53;20.70;99.90
7530;DHT22;3806;52.270;10.544;2022-08-01T02:37:21;20.80;99.90
7530;DHT22;3806;52.270;10.544;2022-08-01T02:39:51;20.70;99.90
7530;DHT22;3806;52.270;10.544;2022-08-01T02:42:18;20.70;99.90
7530;DHT22;3806;52.270;10.544;2022-08-01T02:44:44;20.70;99.90
7530;DHT22;3806;52.270;10.544;2022-08-01T02:47:12;20.70;99.90
7530;DHT22;3806;52.270;10.544;2022-08-01T02:49:42;20.70;99.90
7530;DHT22;3806;52.270;10.544;2022-08-01T02:52:12;20.70;99.90
7530;DHT22;3806;52.270;10.544;2022-08-01T02:54:39;20.70;99.90
7530;DHT22;3806;52.270;10.544;2022-08-01T02:57:07;20.70;99.90
7530;DHT22;3806;52.270;10.544;2022-08-01T02:59:36;20.70;99.90
7530;DHT22;3806;52.270;10.544;2022-08-01T03:02:02;20.70;99.90
7530;DHT22;3806;52.270;10.544;2022-08-01T03:04:35;20.70;99.90
7530;DHT22;3806;52.270;10.544;2022-08-01T03:07:04;20.70;99.90
7530;DHT22;3806;52.270;10.544;2022-08-01T03:09:33;20.70;99.90
7530;DHT22;3806;52.270;10.544;2022-08-01T03:12:03;20.70;99.90
7530;DHT22;3806;52.270;10.544;2022-08-01T03:14:30;20.70;99.90
7530;DHT22;3806;52.270;10.544;2022-08-01T03:16:59;20.60;99.90
7530;DHT22;3806;52.270;10.544;2022-08-01T03:19:26;20.60;99.90
7530;DHT22;3806;52.270;10.544;2022-08-01T03:21:54;20.60;99.90
7530;DHT22;3806;52.270;10.544;2022-08-01T03:24:21;20.60;99.90
7530;DHT22;3806;52.270;10.544;2022-08-01T03:26:49;20.60;99.90
7530;DHT22;3806;52.270;10.544;2022-08-01T03:29:18;20.60;99.90
7530;DHT22;3806;52.270;10.544;2022-08-01T03:31:46;20.60;99.90
7530;DHT22;3806;52.270;10.544;2022-08-01T03:34:13;20.60;99.90
7530;DHT22;3806;52.270;10.544;2022-08-01T03:37:02;20.60;99.90
7530;DHT22;3806;52.270;10.544;2022-08-01T03:39:34;20.60;99.90
7530;DHT22;3806;52.270;10.544;2022-08-01T03:42:11;20.50;99.90
7530;DHT22;3806;52.270;10.544;2022-08-01T03:44:39;20.50;99.90
7530;DHT22;3806;52.270;10.544;2022-08-01T03:47:08;20.50;99.90
7530;DHT22;3806;52.270;10.544;2022-08-01T03:49:43;20.50;99.90
7530;DHT22;3806;52.270;10.544;2022-08-01T03:52:10;20.50;99.90
7530;DHT22;3806;52.270;10.544;2022-08-01T03:54:42;20.50;99.90
7530;DHT22;3806;52.270;10.544;2022-08-01T03:57:09;20.50;99.90
7530;DHT22;3806;52.270;10.544;2022-08-01T03:59:35;20.50;99.90
7530;DHT22;3806;52.270;10.544;2022-08-01T04:02:02;20.50;99.90
7530;DHT22;3806;52.270;10.544;2022-08-01T04:04:30;20.50;99.90
7530;DHT22;3806;52.270;10.544;2022-08-01T04:06:55;20.50;99.90
7530;DHT22;3806;52.270;10.544;2022-08-01T04:09:21;20.50;99.90
7530;DHT22;3806;52.270;10.544;2022-08-01T04:11:47;20.50;99.90
7530;DHT22;3806;52.270;10.544;2022-08-01T04:14:14;20.50;99.90
7530;DHT22;3806;52.270;10.544;2022-08-01T04:16:39;20.50;99.90
7530;DHT22;3806;52.270;10.544;2022-08-01T04:19:05;20.50;99.90
7530;DHT22;3806;52.270;10.544;2022-08-01T04:21:34;20.50;99.90
7530;DHT22;3806;52.270;10.544;2022-08-01T04:24:04;20.50;99.90
7530;DHT22;3806;52.270;10.544;2022-08-01T04:26:32;20.50;99.90
7530;DHT22;3806;52.270;10.544;2022-08-01T04:29:01;20.60;99.90
7530;DHT22;3806;52.270;10.544;2022-08-01T04:31:28;20.60;99.90
7530;DHT22;3806;52.270;10.544;2022-08-01T04:33:55;20.60;99.90
7530;DHT22;3806;52.270;10.544;2022-08-01T04:36:23;20.60;99.90
7530;DHT22;3806;52.270;10.544;2022-08-01T04:38:54;20.60;99.90
7530;DHT22;3806;52.270;10.544;2022-08-01T04:41:21;20.60;99.90
7530;DHT22;3806;52.270;10.544;2022-08-01T04:43:48;20.60;99.90
7530;DHT22;3806;52.270;10.544;2022-08-01T04:46:14;20.70;99.90
7530;DHT22;3806;52.270;10.544;2022-08-01T04:48:41;20.70;99.90
7530;DHT22;3806;52.270;10.544;2022-08-01T04:51:16;20.70;99.90
7530;DHT22;3806;52.270;10.544;2022-08-01T04:53:43;20.70;99.90
7530;DHT22;3806;52.270;10.544;2022-08-01T04:56:11;20.80;99.90
7530;DHT22;3806;52.270;10.544;2022-08-01T04:58:42;20.80;99.90
7530;DHT22;3806;52.270;10.544;2022-08-01T05:01:08;20.80;99.90
7530;DHT22;3806;52.270;10.544;2022-08-01T05:03:34;20.80;99.90
7530;DHT22;3806;52.270;10.544;2022-08-01T05:06:00;20.80;99.90
7530;DHT22;3806;52.270;10.544;2022-08-01T05:08:26;20.80;99.90
7530;DHT22;3806;52.270;10.544;2022-08-01T05:10:51;20.80;99.90
7530;DHT22;3806;52.270;10.544;2022-08-01T05:13:18;20.80;99.90
7530;DHT22;3806;52.270;10.544;2022-08-01T05:15:44;20.80;99.90
7530;DHT22;3806;52.270;10.544;2022-08-01T05:18:10;20.80;99.90
7530;DHT22;3806;52.270;10.544;2022-08-01T05:20:36;20.80;99.90
7530;DHT22;3806;52.270;10.544;2022-08-01T05:23:02;20.80;99.90
7530;DHT22;3806;52.270;10.544;2022-08-01T05:25:28;20.80;99.90
7530;DHT22;3806;52.270;10.544;2022-08-01T05:27:54;20.90;99.90
7530;DHT22;3806;52.270;10.544;2022-08-01T05:30:19;20.90;99.90
7530;DHT22;3806;52.270;10.544;2022-08-01T05:32:45;21.00;99.90
7530;DHT22;3806;52.270;10.544;2022-08-01T05:35:11;21.00;99.90
7530;DHT22;3806;52.270;10.544;2022-08-01T05:37:37;21.10;99.90
7530;DHT22;3806;52.270;10.544;2022-08-01T05:40:03;21.10;99.90
7530;DHT22;3806;52.270;10.544;2022-08-01T05:42:29;21.20;99.90
7530;DHT22;3806;52.270;10.544;2022-08-01T05:44:55;21.30;99.90
7530;DHT22;3806;52.270;10.544;2022-08-01T05:47:20;21.30;99.90
7530;DHT22;3806;52.270;10.544;2022-08-01T05:49:46;21.30;99.90
7530;DHT22;3806;52.270;10.544;2022-08-01T05:52:12;21.40;99.90
7530;DHT22;3806;52.270;10.544;2022-08-01T05:54:38;21.50;99.90
7530;DHT22;3806;52.270;10.544;2022-08-01T05:57:04;21.50;99.90
7530;DHT22;3806;52.270;10.544;2022-08-01T05:59:30;21.50;99.90
7530;DHT22;3806;52.270;10.544;2022-08-01T06:01:56;21.50;99.90
7530;DHT22;3806;52.270;10.544;2022-08-01T06:04:22;21.50;99.90
7530;DHT22;3806;52.270;10.544;2022-08-01T06:06:48;21.50;99.90
7530;DHT22;3806;52.270;10.544;2022-08-01T06:09:13;21.60;99.90
7530;DHT22;3806;52.270;10.544;2022-08-01T06:11:40;21.70;99.90
7530;DHT22;3806;52.270;10.544;2022-08-01T06:14:05;21.80;99.90
7530;DHT22;3806;52.270;10.544;2022-08-01T06:16:31;21.90;99.90
7530;DHT22;3806;52.270;10.544;2022-08-01T06:18:56;21.90;99.90
7530;DHT22;3806;52.270;10.544;2022-08-01T06:21:22;22.00;99.90
7530;DHT22;3806;52.270;10.544;2022-08-01T06:23:48;22.00;99.90
7530;DHT22;3806;52.270;10.544;2022-08-01T06:26:13;22.10;99.90
7530;DHT22;3806;52.270;10.544;2022-08-01T06:28:42;22.10;99.90
7530;DHT22;3806;52.270;10.544;2022-08-01T06:31:07;22.10;99.90
7530;DHT22;3806;52.270;10.544;2022-08-01T06:33:35;22.20;99.90
7530;DHT22;3806;52.270;10.544;2022-08-01T06:36:00;22.30;99.90
7530;DHT22;3806;52.270;10.544;2022-08-01T06:38:26;22.60;99.90
7530;DHT22;3806;52.270;10.544;2022-08-01T06:40:51;22.90;99.90
7530;DHT22;3806;52.270;10.544;2022-08-01T06:43:17;23.20;99.90
7530;DHT22;3806;52.270;10.544;2022-08-01T06:45:44;23.50;99.90
7530;DHT22;3806;52.270;10.544;2022-08-01T06:48:09;23.50;99.90
7530;DHT22;3806;52.270;10.544;2022-08-01T06:50:35;23.50;99.90
7530;DHT22;3806;52.270;10.544;2022-08-01T06:53:01;23.30;99.90
7530;DHT22;3806;52.270;10.544;2022-08-01T06:55:27;23.10;99.90
7530;DHT22;3806;52.270;10.544;2022-08-01T06:57:53;22.90;99.90
7530;DHT22;3806;52.270;10.544;2022-08-01T07:00:20;22.70;99.90
7530;DHT22;3806;52.270;10.544;2022-08-01T07:02:49;22.50;99.90
7530;DHT22;3806;52.270;10.544;2022-08-01T07:05:15;22.40;99.90
7530;DHT22;3806;52.270;10.544;2022-08-01T07:07:40;22.30;99.90
7530;DHT22;3806;52.270;10.544;2022-08-01T07:10:06;22.20;99.90
7530;DHT22;3806;52.270;10.544;2022-08-01T07:12:34;22.20;99.90
7530;DHT22;3806;52.270;10.544;2022-08-01T07:15:03;22.30;99.90
7530;DHT22;3806;52.270;10.544;2022-08-01T07:17:29;22.20;99.90
7530;DHT22;3806;52.270;10.544;2022-08-01T07:19:54;22.20;99.90
7530;DHT22;3806;52.270;10.544;2022-08-01T07:22:20;22.10;99.90
7530;DHT22;3806;52.270;10.544;2022-08-01T07:24:46;22.10;99.90
7530;DHT22;3806;52.270;10.544;2022-08-01T07:27:12;22.10;99.90
7530;DHT22;3806;52.270;10.544;2022-08-01T07:29:37;22.20;99.90
7530;DHT22;3806;52.270;10.544;2022-08-01T07:32:03;22.20;99.90
7530;DHT22;3806;52.270;10.544;2022-08-01T07:34:29;22.20;99.90
7530;DHT22;3806;52.270;10.544;2022-08-01T07:36:55;22.30;99.90
7530;DHT22;3806;52.270;10.544;2022-08-01T07:39:20;22.50;99.90
7530;DHT22;3806;52.270;10.544;2022-08-01T07:41:46;22.50;99.90
7530;DHT22;3806;52.270;10.544;2022-08-01T07:44:12;22.80;99.90
7530;DHT22;3806;52.270;10.544;2022-08-01T07:46:37;23.10;99.90
7530;DHT22;3806;52.270;10.544;2022-08-01T07:49:03;23.60;99.90
7530;DHT22;3806;52.270;10.544;2022-08-01T07:51:29;24.00;99.90
7530;DHT22;3806;52.270;10.544;2022-08-01T07:53:54;24.40;99.90
7530;DHT22;3806;52.270;10.544;2022-08-01T07:56:20;24.50;99.90
7530;DHT22;3806;52.270;10.544;2022-08-01T07:58:49;24.40;99.90
7530;DHT22;3806;52.270;10.544;2022-08-01T08:01:15;24.30;99.90
7530;DHT22;3806;52.270;10.544;2022-08-01T08:03:43;24.20;99.90
7530;DHT22;3806;52.270;10.544;2022-08-01T08:06:08;24.20;99.90
7530;DHT22;3806;52.270;10.544;2022-08-01T08:08:34;24.20;99.90
7530;DHT22;3806;52.270;10.544;2022-08-01T08:11:01;24.20;99.90
7530;DHT22;3806;52.270;10.544;2022-08-01T08:13:26;24.50;99.90
7530;DHT22;3806;52.270;10.544;2022-08-01T08:15:52;24.70;99.60
7530;DHT22;3806;52.270;10.544;2022-08-01T08:18:18;24.80;99.00
7530;DHT22;3806;52.270;10.544;2022-08-01T08:20:44;24.80;98.60
7530;DHT22;3806;52.270;10.544;2022-08-01T08:23:10;24.80;98.40
7530;DHT22;3806;52.270;10.544;2022-08-01T08:25:54;24.80;98.20
7530;DHT22;3806;52.270;10.544;2022-08-01T08:28:20;25.00;98.10
7530;DHT22;3806;52.270;10.544;2022-08-01T08:30:46;25.00;97.80
7530;DHT22;3806;52.270;10.544;2022-08-01T08:33:11;25.00;97.40
7530;DHT22;3806;52.270;10.544;2022-08-01T08:35:39;25.10;97.30
7530;DHT22;3806;52.270;10.544;2022-08-01T08:38:06;25.60;96.50
7530;DHT22;3806;52.270;10.544;2022-08-01T08:40:35;26.20;95.00
7530;DHT22;3806;52.270;10.544;2022-08-01T08:43:01;26.90;93.00
7530;DHT22;3806;52.270;10.544;2022-08-01T08:45:27;27.60;90.50
7530;DHT22;3806;52.270;10.544;2022-08-01T08:47:54;28.30;86.90
7530;DHT22;3806;52.270;10.544;2022-08-01T08:50:23;28.50;83.00
7530;DHT22;3806;52.270;10.544;2022-08-01T08:52:49;28.60;81.60
7530;DHT22;3806;52.270;10.544;2022-08-01T08:55:16;28.40;80.90
7530;DHT22;3806;52.270;10.544;2022-08-01T08:57:44;28.20;81.00
7530;DHT22;3806;52.270;10.544;2022-08-01T09:00:10;27.90;81.50
7530;DHT22;3806;52.270;10.544;2022-08-01T09:02:41;27.70;82.70
7530;DHT22;3806;52.270;10.544;2022-08-01T09:05:07;27.50;82.70
7530;DHT22;3806;52.270;10.544;2022-08-01T09:07:33;27.40;83.20
7530;DHT22;3806;52.270;10.544;2022-08-01T09:09:59;27.20;84.20
7530;DHT22;3806;52.270;10.544;2022-08-01T09:12:25;27.00;84.10
7530;DHT22;3806;52.270;10.544;2022-08-01T09:14:50;26.60;84.70
7530;DHT22;3806;52.270;10.544;2022-08-01T09:17:19;26.40;86.10
7530;DHT22;3806;52.270;10.544;2022-08-01T09:19:55;26.20;87.30
7530;DHT22;3806;52.270;10.544;2022-08-01T09:22:23;26.10;88.10
7530;DHT22;3806;52.270;10.544;2022-08-01T09:27:23;25.70;89.90
7530;DHT22;3806;52.270;10.544;2022-08-01T09:29:52;25.60;90.40
7530;DHT22;3806;52.270;10.544;2022-08-01T09:32:18;25.30;91.00
7530;DHT22;3806;52.270;10.544;2022-08-01T09:34:44;25.20;91.50
7530;DHT22;3806;52.270;10.544;2022-08-01T09:37:12;25.00;91.90
7530;DHT22;3806;52.270;10.544;2022-08-01T09:39:45;24.90;92.60
7530;DHT22;3806;52.270;10.544;2022-08-01T09:42:25;24.80;93.00
7530;DHT22;3806;52.270;10.544;2022-08-01T09:44:51;25.00;93.50
7530;DHT22;3806;52.270;10.544;2022-08-01T09:47:19;25.00;93.50
7530;DHT22;3806;52.270;10.544;2022-08-01T09:49:56;25.20;93.30
7530;DHT22;3806;52.270;10.544;2022-08-01T09:52:25;25.50;92.80
7530;DHT22;3806;52.270;10.544;2022-08-01T09:55:04;25.80;92.20
7530;DHT22;3806;52.270;10.544;2022-08-01T09:57:37;26.10;91.20
7530;DHT22;3806;52.270;10.544;2022-08-01T10:00:04;26.50;90.50
7530;DHT22;3806;52.270;10.544;2022-08-01T10:02:32;26.80;89.80
7530;DHT22;3806;52.270;10.544;2022-08-01T10:04:59;27.10;88.30
7530;DHT22;3806;52.270;10.544;2022-08-01T10:07:25;27.50;85.90
7530;DHT22;3806;52.270;10.544;2022-08-01T10:09:51;27.70;84.50
7530;DHT22;3806;52.270;10.544;2022-08-01T10:12:19;27.90;82.90
7530;DHT22;3806;52.270;10.544;2022-08-01T10:14:47;28.00;81.80
7530;DHT22;3806;52.270;10.544;2022-08-01T10:17:14;27.90;81.00
7530;DHT22;3806;52.270;10.544;2022-08-01T10:19:41;27.70;80.80
7530;DHT22;3806;52.270;10.544;2022-08-01T10:22:10;27.40;80.90
7530;DHT22;3806;52.270;10.544;2022-08-01T10:24:38;27.10;81.50
7530;DHT22;3806;52.270;10.544;2022-08-01T10:27:07;26.80;82.80
7530;DHT22;3806;52.270;10.544;2022-08-01T10:29:43;26.60;83.60
7530;DHT22;3806;52.270;10.544;2022-08-01T10:32:11;26.50;84.00
7530;DHT22;3806;52.270;10.544;2022-08-01T10:34:37;26.50;83.60
7530;DHT22;3806;52.270;10.544;2022-08-01T10:37:04;26.40;83.60
7530;DHT22;3806;52.270;10.544;2022-08-01T10:39:32;26.30;84.20
7530;DHT22;3806;52.270;10.544;2022-08-01T10:41:58;26.30;84.90
7530;DHT22;3806;52.270;10.544;2022-08-01T10:44:28;26.30;85.40
7530;DHT22;3806;52.270;10.544;2022-08-01T10:47:06;26.30;85.70
7530;DHT22;3806;52.270;10.544;2022-08-01T10:49:36;26.30;85.90
7530;DHT22;3806;52.270;10.544;2022-08-01T10:52:04;26.20;86.20
7530;DHT22;3806;52.270;10.544;2022-08-01T10:54:38;26.00;85.80
7530;DHT22;3806;52.270;10.544;2022-08-01T10:57:04;26.00;85.10
7530;DHT22;3806;52.270;10.544;2022-08-01T10:59:32;26.20;84.30
7530;DHT22;3806;52.270;10.544;2022-08-01T11:02:03;26.50;83.00
7530;DHT22;3806;52.270;10.544;2022-08-01T11:07:17;27.50;76.70
7530;DHT22;3806;52.270;10.544;2022-08-01T11:09:59;27.90;74.70
7530;DHT22;3806;52.270;10.544;2022-08-01T11:12:38;28.10;73.40
7530;DHT22;3806;52.270;10.544;2022-08-01T11:15:17;28.30;73.40
7530;DHT22;3806;52.270;10.544;2022-08-01T11:17:50;28.10;73.10
7530;DHT22;3806;52.270;10.544;2022-08-01T11:28:17;26.30;77.80
7530;DHT22;3806;52.270;10.544;2022-08-01T11:30:48;26.10;79.80
7530;DHT22;3806;52.270;10.544;2022-08-01T11:33:17;26.00;80.10
7530;DHT22;3806;52.270;10.544;2022-08-01T11:38:39;26.30;79.40
7530;DHT22;3806;52.270;10.544;2022-08-01T11:41:32;26.40;78.80
7530;DHT22;3806;52.270;10.544;2022-08-01T11:44:13;26.40;78.10
7530;DHT22;3806;52.270;10.544;2022-08-01T11:57:25;26.40;77.40
7530;DHT22;3806;52.270;10.544;2022-08-01T11:59:53;26.30;78.00
7530;DHT22;3806;52.270;10.544;2022-08-01T12:02:25;26.20;78.20
7530;DHT22;3806;52.270;10.544;2022-08-01T12:04:56;26.20;78.50
7530;DHT22;3806;52.270;10.544;2022-08-01T12:07:23;26.10;79.00
7530;DHT22;3806;52.270;10.544;2022-08-01T12:09:57;26.10;79.20
7530;DHT22;3806;52.270;10.544;2022-08-01T12:12:23;26.30;79.60
7530;DHT22;3806;52.270;10.544;2022-08-01T12:14:54;26.50;79.20
7530;DHT22;3806;52.270;10.544;2022-08-01T12:17:43;26.80;77.60
7530;DHT22;3806;52.270;10.544;2022-08-01T12:20:10;27.10;76.10
7530;DHT22;3806;52.270;10.544;2022-08-01T12:22:36;27.40;74.80
7530;DHT22;3806;52.270;10.544;2022-08-01T12:25:11;27.40;73.80
7530;DHT22;3806;52.270;10.544;2022-08-01T12:27:38;27.30;74.00
7530;DHT22;3806;52.270;10.544;2022-08-01T12:30:09;27.20;74.60
7530;DHT22;3806;52.270;10.544;2022-08-01T12:32:38;27.00;74.80
7530;DHT22;3806;52.270;10.544;2022-08-01T12:35:09;27.00;74.90
7530;DHT22;3806;52.270;10.544;2022-08-01T12:37:44;27.00;74.90
7530;DHT22;3806;52.270;10.544;2022-08-01T12:42:38;27.30;74.00
7530;DHT22;3806;52.270;10.544;2022-08-01T12:45:07;27.30;73.60
7530;DHT22;3806;52.270;10.544;2022-08-01T12:47:33;27.20;74.00
7530;DHT22;3806;52.270;10.544;2022-08-01T12:50:00;27.10;74.10
7530;DHT22;3806;52.270;10.544;2022-08-01T12:52:26;27.10;74.10
7530;DHT22;3806;52.270;10.544;2022-08-01T12:55:13;27.20;73.30
7530;DHT22;3806;52.270;10.544;2022-08-01T12:57:42;27.20;72.90
7530;DHT22;3806;52.270;10.544;2022-08-01T13:00:18;27.20;72.60
7530;DHT22;3806;52.270;10.544;2022-08-01T13:02:46;27.20;72.60
7530;DHT22;3806;52.270;10.544;2022-08-01T13:05:12;27.30;71.50
7530;DHT22;3806;52.270;10.544;2022-08-01T13:07:47;27.20;71.20
7530;DHT22;3806;52.270;10.544;2022-08-01T13:10:14;27.20;71.60
7530;DHT22;3806;52.270;10.544;2022-08-01T13:12:42;27.20;72.00
7530;DHT22;3806;52.270;10.544;2022-08-01T13:15:20;27.10;71.70
7530;DHT22;3806;52.270;10.544;2022-08-01T13:17:45;27.10;72.30
7530;DHT22;3806;52.270;10.544;2022-08-01T13:20:31;27.10;71.80
7530;DHT22;3806;52.270;10.544;2022-08-01T13:23:11;27.20;71.00
7530;DHT22;3806;52.270;10.544;2022-08-01T13:25:50;27.20;69.70
7530;DHT22;3806;52.270;10.544;2022-08-01T13:28:19;27.00;69.70
7530;DHT22;3806;52.270;10.544;2022-08-01T13:30:56;27.00;70.60
7530;DHT22;3806;52.270;10.544;2022-08-01T13:33:22;26.90;70.90
7530;DHT22;3806;52.270;10.544;2022-08-01T13:35:56;26.80;71.90
7530;DHT22;3806;52.270;10.544;2022-08-01T13:38:22;26.80;71.20
7530;DHT22;3806;52.270;10.544;2022-08-01T13:41:08;26.90;70.60
7530;DHT22;3806;52.270;10.544;2022-08-01T13:43:34;26.80;70.50
7530;DHT22;3806;52.270;10.544;2022-08-01T13:46:01;26.70;72.20
7530;DHT22;3806;52.270;10.544;2022-08-01T13:48:30;26.60;72.70
7530;DHT22;3806;52.270;10.544;2022-08-01T13:50:56;26.50;73.80
7530;DHT22;3806;52.270;10.544;2022-08-01T13:53:22;26.50;72.80
7530;DHT22;3806;52.270;10.544;2022-08-01T13:55:48;26.50;71.80
7530;DHT22;3806;52.270;10.544;2022-08-01T13:58:13;26.60;70.80
7530;DHT22;3806;52.270;10.544;2022-08-01T14:00:39;26.60;70.40
7530;DHT22;3806;52.270;10.544;2022-08-01T14:03:04;26.70;69.90
7530;DHT22;3806;52.270;10.544;2022-08-01T14:05:31;26.80;69.00
7530;DHT22;3806;52.270;10.544;2022-08-01T14:07:56;26.90;69.10
7530;DHT22;3806;52.270;10.544;2022-08-01T14:10:23;26.90;69.10
7530;DHT22;3806;52.270;10.544;2022-08-01T14:12:49;27.00;68.40
7530;DHT22;3806;52.270;10.544;2022-08-01T14:15:15;27.00;68.00
7530;DHT22;3806;52.270;10.544;2022-08-01T14:17:41;27.10;68.00
7530;DHT22;3806;52.270;10.544;2022-08-01T14:20:07;27.00;67.30
7530;DHT22;3806;52.270;10.544;2022-08-01T14:22:33;27.00;67.30
7530;DHT22;3806;52.270;10.544;2022-08-01T14:24:59;26.90;66.80
7530;DHT22;3806;52.270;10.544;2022-08-01T14:27:25;26.80;66.80
7530;DHT22;3806;52.270;10.544;2022-08-01T14:29:50;26.70;67.20
7530;DHT22;3806;52.270;10.544;2022-08-01T14:32:16;26.70;67.20
7530;DHT22;3806;52.270;10.544;2022-08-01T14:34:41;26.60;66.80
7530;DHT22;3806;52.270;10.544;2022-08-01T14:37:07;26.70;67.00
7530;DHT22;3806;52.270;10.544;2022-08-01T14:39:32;26.80;67.10
7530;DHT22;3806;52.270;10.544;2022-08-01T14:41:58;26.90;66.90
7530;DHT22;3806;52.270;10.544;2022-08-01T14:44:23;27.00;66.60
7530;DHT22;3806;52.270;10.544;2022-08-01T14:46:49;26.90;66.20
7530;DHT22;3806;52.270;10.544;2022-08-01T14:49:15;26.90;66.20
7530;DHT22;3806;52.270;10.544;2022-08-01T14:51:41;27.00;66.40
7530;DHT22;3806;52.270;10.544;2022-08-01T14:54:06;27.00;66.10
7530;DHT22;3806;52.270;10.544;2022-08-01T14:56:32;27.00;66.00
7530;DHT22;3806;52.270;10.544;2022-08-01T14:58:57;27.00;65.50
7530;DHT22;3806;52.270;10.544;2022-08-01T15:01:24;27.00;65.20
7530;DHT22;3806;52.270;10.544;2022-08-01T15:03:50;27.00;64.80
7530;DHT22;3806;52.270;10.544;2022-08-01T15:06:16;27.10;64.70
7530;DHT22;3806;52.270;10.544;2022-08-01T15:08:42;27.00;64.60
7530;DHT22;3806;52.270;10.544;2022-08-01T15:11:08;27.10;64.10
7530;DHT22;3806;52.270;10.544;2022-08-01T15:13:34;27.00;63.90
7530;DHT22;3806;52.270;10.544;2022-08-01T15:16:00;27.00;63.80
7530;DHT22;3806;52.270;10.544;2022-08-01T15:18:26;27.00;63.60
7530;DHT22;3806;52.270;10.544;2022-08-01T15:20:52;26.90;63.60
7530;DHT22;3806;52.270;10.544;2022-08-01T15:23:18;26.90;63.80
7530;DHT22;3806;52.270;10.544;2022-08-01T15:25:44;26.90;63.80
7530;DHT22;3806;52.270;10.544;2022-08-01T15:28:09;26.80;64.10
7530;DHT22;3806;52.270;10.544;2022-08-01T15:30:35;26.80;64.60
7530;DHT22;3806;52.270;10.544;2022-08-01T15:33:01;26.80;64.50
7530;DHT22;3806;52.270;10.544;2022-08-01T15:35:27;26.70;64.40
7530;DHT22;3806;52.270;10.544;2022-08-01T15:37:52;26.70;64.40
7530;DHT22;3806;52.270;10.544;2022-08-01T15:40:18;26.60;64.40
7530;DHT22;3806;52.270;10.544;2022-08-01T15:42:45;26.50;64.20
7530;DHT22;3806;52.270;10.544;2022-08-01T15:45:11;26.40;64.50
7530;DHT22;3806;52.270;10.544;2022-08-01T15:47:41;26.30;64.70
7530;DHT22;3806;52.270;10.544;2022-08-01T15:50:07;26.20;65.00
7530;DHT22;3806;52.270;10.544;2022-08-01T15:52:33;26.10;65.00
7530;DHT22;3806;52.270;10.544;2022-08-01T15:54:59;26.10;65.10
7530;DHT22;3806;52.270;10.544;2022-08-01T15:57:24;26.10;65.40
7530;DHT22;3806;52.270;10.544;2022-08-01T15:59:50;26.10;65.60
7530;DHT22;3806;52.270;10.544;2022-08-01T16:02:17;26.00;65.80
7530;DHT22;3806;52.270;10.544;2022-08-01T16:04:42;25.90;66.20
7530;DHT22;3806;52.270;10.544;2022-08-01T16:07:08;25.80;66.80
7530;DHT22;3806;52.270;10.544;2022-08-01T16:09:33;25.70;67.00
7530;DHT22;3806;52.270;10.544;2022-08-01T16:11:59;25.60;67.00
7530;DHT22;3806;52.270;10.544;2022-08-01T16:14:25;25.50;67.20
7530;DHT22;3806;52.270;10.544;2022-08-01T16:16:50;25.50;67.60
7530;DHT22;3806;52.270;10.544;2022-08-01T16:19:16;25.50;67.90
7530;DHT22;3806;52.270;10.544;2022-08-01T16:21:42;25.40;68.10
7530;DHT22;3806;52.270;10.544;2022-08-01T16:24:07;25.50;68.40
7530;DHT22;3806;52.270;10.544;2022-08-01T16:26:33;25.50;68.30
7530;DHT22;3806;52.270;10.544;2022-08-01T16:28:59;25.50;68.00
7530;DHT22;3806;52.270;10.544;2022-08-01T16:31:24;25.50;68.20